createdAt,value
2023-06-18T00:01:46.529Z,20.99
2023-06-18T00:04:16.746Z,20.99
2023-06-18T00:06:46.613Z,20.98
2023-06-18T00:09:16.502Z,20.98
2023-06-18T00:11:46.556Z,20.97
2023-06-18T00:14:16.446Z,20.97
2023-06-18T00:16:46.375Z,20.97
2023-06-18T00:19:16.130Z,20.97
2023-06-18T00:21:46.204Z,20.98
2023-06-18T00:24:16.242Z,20.98
2023-06-18T00:26:46.172Z,20.98
2023-06-18T00:29:16.807Z,20.97
2023-06-18T00:31:46.595Z,20.95
2023-06-18T00:34:18.437Z,20.93
2023-06-18T00:36:51.835Z,20.93
2023-06-18T00:39:23.295Z,20.91
2023-06-18T00:41:53.295Z,20.90
2023-06-18T00:44:23.139Z,20.88
2023-06-18T00:46:57.413Z,20.86
2023-06-18T00:49:27.740Z,20.83
2023-06-18T00:51:57.860Z,20.81
2023-06-18T00:54:28.483Z,20.79
2023-06-18T00:57:00.876Z,20.77
2023-06-18T00:59:30.989Z,20.74
2023-06-18T01:02:02.974Z,20.73
2023-06-18T01:04:34.327Z,20.70
2023-06-18T01:07:06.245Z,20.68
2023-06-18T01:09:37.696Z,20.66
2023-06-18T01:12:09.108Z,20.64
2023-06-18T01:14:38.954Z,20.61
2023-06-18T01:17:10.080Z,20.59
2023-06-18T01:19:47.526Z,20.57
2023-06-18T01:22:27.789Z,20.54
2023-06-18T01:25:00.135Z,20.52
2023-06-18T01:27:32.653Z,20.50
2023-06-18T01:30:03.329Z,20.49
2023-06-18T01:32:33.853Z,20.46
2023-06-18T01:35:05.957Z,20.45
2023-06-18T01:37:42.051Z,20.43
2023-06-18T01:40:17.841Z,20.41
2023-06-18T01:42:51.032Z,20.40
2023-06-18T01:45:23.992Z,20.38
2023-06-18T01:47:59.205Z,20.36
2023-06-18T01:50:29.247Z,20.36
2023-06-18T01:53:00.214Z,20.34
2023-06-18T01:55:30.846Z,20.32
2023-06-18T01:58:00.891Z,20.29
2023-06-18T02:00:30.869Z,20.27
2023-06-18T02:03:01.345Z,20.26
2023-06-18T02:05:31.256Z,20.25
2023-06-18T02:08:01.343Z,20.23
2023-06-18T02:10:31.611Z,20.22
2023-06-18T02:13:01.512Z,20.21
2023-06-18T02:15:31.589Z,20.20
2023-06-18T02:18:02.061Z,20.19
2023-06-18T02:20:32.169Z,20.19
2023-06-18T02:23:05.398Z,20.18
2023-06-18T02:25:35.296Z,20.18
2023-06-18T02:28:05.762Z,20.18
2023-06-18T02:30:36.367Z,20.19
2023-06-18T02:33:11.634Z,20.18
2023-06-18T02:35:43.021Z,20.13
2023-06-18T02:38:13.544Z,20.09
2023-06-18T02:40:43.422Z,20.05
2023-06-18T02:43:13.988Z,20.02
2023-06-18T02:45:44.205Z,19.99
2023-06-18T02:48:16.684Z,19.98
2023-06-18T02:50:46.452Z,19.97
2023-06-18T02:53:16.544Z,19.96
2023-06-18T02:55:46.619Z,19.94
2023-06-18T02:58:29.262Z,19.95
2023-06-18T03:01:03.509Z,19.96
2023-06-18T03:03:38.821Z,19.99
2023-06-18T03:06:08.620Z,20.02
2023-06-18T03:08:38.374Z,20.07
2023-06-18T03:11:08.494Z,20.11
2023-06-18T03:13:39.615Z,20.15
2023-06-18T03:16:09.480Z,20.20
2023-06-18T03:18:39.598Z,20.24
2023-06-18T03:21:09.738Z,20.29
2023-06-18T03:23:39.835Z,20.33
2023-06-18T03:26:11.209Z,20.37
2023-06-18T03:28:42.020Z,20.42
2023-06-18T03:31:11.947Z,20.47
2023-06-18T03:33:43.040Z,20.52
2023-06-18T03:36:16.713Z,20.56
2023-06-18T03:38:47.205Z,20.60
2023-06-18T03:41:17.223Z,20.64
2023-06-18T03:43:47.243Z,20.67
2023-06-18T03:46:17.321Z,20.72
2023-06-18T03:48:47.282Z,20.75
2023-06-18T03:51:17.323Z,20.79
2023-06-18T03:53:47.294Z,20.82
2023-06-18T03:56:18.265Z,20.85
2023-06-18T03:58:49.673Z,20.89
2023-06-18T04:01:20.000Z,20.92
2023-06-18T04:03:50.131Z,20.95
2023-06-18T04:06:20.042Z,20.98
2023-06-18T04:08:51.041Z,21.01
2023-06-18T04:11:21.264Z,21.04
2023-06-18T04:13:52.179Z,21.07
2023-06-18T04:16:22.446Z,21.11
2023-06-18T04:18:52.339Z,21.14
2023-06-18T04:21:22.728Z,21.17
2023-06-18T04:23:53.339Z,21.20
2023-06-18T04:26:25.093Z,21.24
2023-06-18T04:28:55.746Z,21.28
2023-06-18T04:31:26.523Z,21.32
2023-06-18T04:33:56.793Z,21.36
2023-06-18T04:36:26.893Z,21.40
2023-06-18T04:38:57.121Z,21.45
2023-06-18T04:41:27.431Z,21.49
2023-06-18T04:43:57.446Z,21.54
2023-06-18T04:46:27.265Z,21.61
2023-06-18T04:49:00.513Z,21.67
2023-06-18T04:51:31.103Z,21.74
2023-06-18T04:54:01.137Z,21.80
2023-06-18T04:56:31.604Z,21.87
2023-06-18T04:59:01.615Z,21.95
2023-06-18T05:01:31.419Z,22.02
2023-06-18T05:04:01.740Z,22.10
2023-06-18T05:06:32.378Z,22.17
2023-06-18T05:09:02.723Z,22.24
2023-06-18T05:11:32.960Z,22.31
2023-06-18T05:14:04.474Z,22.37
2023-06-18T05:16:36.153Z,22.43
2023-06-18T05:19:06.427Z,22.49
2023-06-18T05:21:36.739Z,22.54
2023-06-18T05:24:08.589Z,22.59
2023-06-18T05:26:40.349Z,22.64
2023-06-18T05:29:10.951Z,22.67
2023-06-18T05:31:41.126Z,22.72
2023-06-18T05:34:15.925Z,22.76
2023-06-18T05:36:46.403Z,22.81
2023-06-18T05:39:16.485Z,22.85
2023-06-18T05:41:46.497Z,22.90
2023-06-18T05:44:16.618Z,22.94
2023-06-18T05:46:46.665Z,22.98
2023-06-18T05:49:17.709Z,23.02
2023-06-18T05:51:48.676Z,23.07
2023-06-18T05:54:18.832Z,23.11
2023-06-18T05:56:49.123Z,23.17
2023-06-18T05:59:20.043Z,23.21
2023-06-18T06:01:53.208Z,23.26
2023-06-18T06:04:23.170Z,23.29
2023-06-18T06:06:53.722Z,23.33
2023-06-18T06:09:23.878Z,23.38
2023-06-18T06:11:54.164Z,23.43
2023-06-18T06:14:23.979Z,23.48
2023-06-18T06:16:58.845Z,23.53
2023-06-18T06:19:30.078Z,23.61
2023-06-18T06:21:59.981Z,23.68
2023-06-18T06:24:31.018Z,23.75
2023-06-18T06:27:01.199Z,23.82
2023-06-18T06:29:32.925Z,23.89
2023-06-18T06:32:02.973Z,23.95
2023-06-18T06:34:32.956Z,24.01
2023-06-18T06:37:03.623Z,24.08
2023-06-18T06:39:33.810Z,24.17
2023-06-18T06:42:04.382Z,24.25
2023-06-18T06:44:34.870Z,24.32
2023-06-18T06:47:19.368Z,24.40
2023-06-18T06:50:10.460Z,24.49
2023-06-18T06:52:56.169Z,24.58
2023-06-18T06:55:26.140Z,24.66
2023-06-18T06:57:56.104Z,24.75
2023-06-18T07:00:26.499Z,24.84
2023-06-18T07:02:57.588Z,24.92
2023-06-18T07:05:28.533Z,25.00
2023-06-18T07:07:58.631Z,25.08
2023-06-18T07:10:28.683Z,25.17
2023-06-18T07:12:59.045Z,25.25
2023-06-18T07:15:28.988Z,25.34
2023-06-18T07:17:59.117Z,25.42
2023-06-18T07:20:29.306Z,25.51
2023-06-18T07:22:59.764Z,25.58
2023-06-18T07:25:29.788Z,25.66
2023-06-18T07:27:59.535Z,25.74
2023-06-18T07:30:29.441Z,25.81
2023-06-18T07:32:59.511Z,25.88
2023-06-18T07:35:29.484Z,25.95
2023-06-18T07:37:59.421Z,26.01
2023-06-18T07:40:33.920Z,26.07
2023-06-18T07:43:03.939Z,26.14
2023-06-18T07:45:33.983Z,26.19
2023-06-18T07:48:04.095Z,26.26
2023-06-18T07:50:34.411Z,26.30
2023-06-18T07:53:04.149Z,26.35
2023-06-18T07:55:33.955Z,26.41
2023-06-18T07:58:03.985Z,26.49
2023-06-18T08:00:34.016Z,26.56
2023-06-18T08:03:03.879Z,26.65
2023-06-18T08:05:33.811Z,26.72
2023-06-18T08:08:03.865Z,26.79
2023-06-18T08:10:34.049Z,26.86
2023-06-18T08:13:04.456Z,26.93
2023-06-18T08:15:35.105Z,27.00
2023-06-18T08:18:05.195Z,27.08
2023-06-18T08:20:35.176Z,27.16
2023-06-18T08:23:04.969Z,27.23
2023-06-18T08:25:36.570Z,27.29
2023-06-18T08:28:06.606Z,27.33
2023-06-18T08:30:36.482Z,27.38
2023-06-18T08:33:06.559Z,27.43
2023-06-18T08:35:38.470Z,27.49
2023-06-18T08:38:08.310Z,27.56
2023-06-18T08:40:49.747Z,27.65
2023-06-18T08:43:23.941Z,27.74
2023-06-18T08:45:54.668Z,27.82
2023-06-18T08:48:32.419Z,27.87
2023-06-18T08:51:05.648Z,27.88
2023-06-18T08:53:41.674Z,27.88
2023-06-18T08:56:11.637Z,27.88
2023-06-18T08:58:49.771Z,27.86
2023-06-18T09:01:21.020Z,27.85
2023-06-18T09:03:51.040Z,27.83
2023-06-18T09:06:20.776Z,27.84
2023-06-18T10:04:34.544Z,26.28
2023-06-18T10:07:06.458Z,26.46
2023-06-18T10:09:38.189Z,26.57
2023-06-18T10:12:09.532Z,26.68
2023-06-18T10:14:39.775Z,26.80
2023-06-18T10:17:15.642Z,26.92
2023-06-18T10:19:48.223Z,27.04
2023-06-18T10:22:18.369Z,27.14
2023-06-18T10:24:54.103Z,27.24
2023-06-18T10:27:24.206Z,27.32
2023-06-18T10:29:54.282Z,27.40
2023-06-18T10:32:24.627Z,27.48
2023-06-18T10:34:56.688Z,27.54
2023-06-18T10:37:26.554Z,27.60
2023-06-18T10:39:57.129Z,27.66
2023-06-18T10:42:27.243Z,27.72
2023-06-18T10:44:59.181Z,27.78
2023-06-18T10:47:30.084Z,27.83
2023-06-18T10:50:17.677Z,27.89
2023-06-18T10:52:51.096Z,27.95
2023-06-18T10:55:32.353Z,28.00
2023-06-18T10:58:04.284Z,28.07
2023-06-18T11:00:36.707Z,28.13
2023-06-18T11:03:07.323Z,28.19
2023-06-18T11:05:48.285Z,28.25
2023-06-18T11:08:27.245Z,28.29
2023-06-18T11:11:04.465Z,28.35
2023-06-18T11:13:36.695Z,28.39
2023-06-18T11:16:15.236Z,28.41
2023-06-18T11:18:45.518Z,28.45
2023-06-18T11:21:18.186Z,28.49
2023-06-18T11:23:48.058Z,28.53
2023-06-18T11:26:18.927Z,28.56
2023-06-18T11:28:49.328Z,28.61
2023-06-18T11:31:19.427Z,28.66
2023-06-18T11:33:49.538Z,28.71
2023-06-18T11:36:20.977Z,28.78
2023-06-18T11:38:52.630Z,28.83
2023-06-18T11:41:23.574Z,28.87
2023-06-18T11:43:54.090Z,28.92
2023-06-18T11:46:31.380Z,28.95
2023-06-18T11:49:01.298Z,28.99
2023-06-18T11:51:32.229Z,29.00
2023-06-18T11:54:02.728Z,29.02
2023-06-18T11:56:32.782Z,29.07
2023-06-18T11:59:02.632Z,29.11
2023-06-18T12:01:33.679Z,29.15
2023-06-18T12:04:05.688Z,29.19
2023-06-18T12:06:35.810Z,29.23
2023-06-18T12:09:09.638Z,29.26
2023-06-18T12:11:48.704Z,29.26
2023-06-18T12:24:57.875Z,29.50
2023-06-18T12:27:28.147Z,29.54
2023-06-18T12:30:01.519Z,29.56
2023-06-18T12:32:32.041Z,29.57
2023-06-18T12:35:11.703Z,29.56
2023-06-18T12:37:45.988Z,29.57
2023-06-18T12:40:22.805Z,29.60
2023-06-18T12:42:53.169Z,29.63
2023-06-18T12:45:31.206Z,29.65
2023-06-18T12:48:12.332Z,29.66
2023-06-18T12:50:48.970Z,29.66
2023-06-18T12:53:23.521Z,29.66
2023-06-18T12:55:57.307Z,29.68
2023-06-18T12:58:27.931Z,29.74
2023-06-18T13:00:59.491Z,29.80
2023-06-18T13:03:29.593Z,29.84
2023-06-18T13:06:00.247Z,29.87
2023-06-18T13:08:30.848Z,29.89
2023-06-18T13:11:01.676Z,29.90
2023-06-18T13:13:31.602Z,29.92
2023-06-18T13:16:04.265Z,29.93
2023-06-18T13:18:34.739Z,29.95
2023-06-18T13:21:05.134Z,29.95
2023-06-18T13:23:35.447Z,29.95
2023-06-18T13:26:05.634Z,29.96
2023-06-18T13:28:35.553Z,29.97
2023-06-18T13:31:05.644Z,29.99
2023-06-18T13:33:36.371Z,30.02
2023-06-18T13:36:09.796Z,30.06
2023-06-18T13:38:41.285Z,30.12
2023-06-18T13:41:11.934Z,30.18
2023-06-18T13:43:41.654Z,30.24
2023-06-18T13:46:11.975Z,30.30
2023-06-18T13:48:42.711Z,30.36
2023-06-18T13:51:12.965Z,30.42
2023-06-18T13:53:42.821Z,30.50
2023-06-18T13:56:12.750Z,30.59
2023-06-18T13:58:43.589Z,30.70
2023-06-18T14:01:13.861Z,30.80
2023-06-18T14:03:43.811Z,30.89
2023-06-18T14:06:13.605Z,30.98
2023-06-18T14:08:44.542Z,31.07
2023-06-18T14:11:14.461Z,31.14
2023-06-18T14:13:45.335Z,31.19
2023-06-18T14:16:15.601Z,31.22
2023-06-18T14:18:45.542Z,31.26
2023-06-18T14:21:15.669Z,31.30
2023-06-18T14:23:46.504Z,31.31
2023-06-18T14:26:17.012Z,31.29
2023-06-18T14:28:46.790Z,31.26
2023-06-18T14:31:16.912Z,31.23
2023-06-18T14:33:53.033Z,31.20
2023-06-18T14:36:38.865Z,31.15
2023-06-18T14:39:10.069Z,31.10
2023-06-18T14:41:41.053Z,31.04
2023-06-18T14:44:11.043Z,30.97
2023-06-18T14:46:41.503Z,30.91
2023-06-18T14:49:11.397Z,30.83
2023-06-18T14:51:41.358Z,30.76
2023-06-18T14:54:14.988Z,30.67
2023-06-18T14:56:47.551Z,30.59
2023-06-18T14:59:18.407Z,30.51
2023-06-18T15:01:48.773Z,30.42
2023-06-18T15:04:19.305Z,30.34
2023-06-18T15:06:49.932Z,30.26
2023-06-18T15:09:20.161Z,30.18
2023-06-18T15:11:50.110Z,30.10
2023-06-18T15:14:20.125Z,29.99
2023-06-18T15:16:50.702Z,29.85
2023-06-18T15:19:21.277Z,29.71
2023-06-18T15:21:51.086Z,29.57
2023-06-18T15:24:21.148Z,29.45
2023-06-18T15:26:51.398Z,29.36
2023-06-18T15:29:21.346Z,29.29
2023-06-18T15:31:52.808Z,29.24
2023-06-18T15:34:23.167Z,29.18
2023-06-18T15:36:53.075Z,29.15
2023-06-18T15:39:23.073Z,29.11
2023-06-18T15:41:53.268Z,29.11
2023-06-18T15:44:23.159Z,29.10
2023-06-18T15:46:53.196Z,29.10
2023-06-18T15:49:23.095Z,29.10
2023-06-18T15:51:53.340Z,29.14
2023-06-18T15:54:23.510Z,29.18
2023-06-18T15:56:53.379Z,29.20
2023-06-18T15:59:23.624Z,29.20
2023-06-18T16:01:53.577Z,29.22
2023-06-18T16:04:24.647Z,29.25
2023-06-18T16:06:57.108Z,29.29
2023-06-18T16:09:27.222Z,29.33
2023-06-18T16:11:57.099Z,29.35
2023-06-18T16:14:27.700Z,29.33
2023-06-18T16:16:57.757Z,29.31
2023-06-18T16:19:27.932Z,29.29
2023-06-18T16:21:57.984Z,29.27
2023-06-18T16:24:28.018Z,29.25
2023-06-18T16:27:00.926Z,29.23
2023-06-18T16:29:30.856Z,29.20
2023-06-18T16:32:00.740Z,29.17
2023-06-18T16:34:30.914Z,29.14
2023-06-18T16:37:01.326Z,29.10
2023-06-18T16:39:31.320Z,29.06
2023-06-18T16:42:01.323Z,29.02
2023-06-18T16:44:31.800Z,28.97
2023-06-18T16:47:01.636Z,28.91
2023-06-18T16:49:31.941Z,28.86
2023-06-18T16:52:01.851Z,28.81
2023-06-18T16:54:32.812Z,28.74
2023-06-18T16:57:02.989Z,28.67
2023-06-18T16:59:33.044Z,28.61
2023-06-18T17:02:03.620Z,28.55
2023-06-18T17:04:34.768Z,28.48
2023-06-18T17:07:06.519Z,28.38
2023-06-18T17:09:37.152Z,28.27
2023-06-18T17:12:09.005Z,28.17
2023-06-18T17:14:39.229Z,28.08
2023-06-18T17:17:09.256Z,27.98
2023-06-18T17:19:39.633Z,27.89
2023-06-18T17:22:10.405Z,27.80
2023-06-18T17:24:41.204Z,27.70
2023-06-18T17:27:12.800Z,27.62
2023-06-18T17:29:43.630Z,27.53
2023-06-18T17:32:14.191Z,27.45
2023-06-18T17:34:44.349Z,27.37
2023-06-18T17:37:14.628Z,27.28
2023-06-18T17:39:45.138Z,27.20
2023-06-18T17:42:15.470Z,27.13
2023-06-18T17:44:45.718Z,27.04
2023-06-18T17:47:15.914Z,26.96
2023-06-18T17:49:49.988Z,26.89
2023-06-18T17:52:20.125Z,26.80
2023-06-18T17:54:50.262Z,26.71
2023-06-18T17:57:20.212Z,26.63
2023-06-18T17:59:50.180Z,26.56
2023-06-18T18:02:20.071Z,26.48
2023-06-18T18:04:50.577Z,26.40
2023-06-18T18:07:21.649Z,26.32
2023-06-18T18:09:52.152Z,26.23
2023-06-18T18:12:22.001Z,26.14
2023-06-18T18:14:52.219Z,26.04
2023-06-18T18:17:22.303Z,25.95
2023-06-18T18:19:56.122Z,25.85
2023-06-18T18:22:26.041Z,25.76
2023-06-18T18:24:56.128Z,25.67
2023-06-18T18:27:26.110Z,25.59
2023-06-18T18:29:56.028Z,25.50
2023-06-18T18:32:26.200Z,25.41
2023-06-18T18:34:56.355Z,25.33
2023-06-18T18:37:26.479Z,25.25
2023-06-18T18:39:56.695Z,25.16
2023-06-18T18:42:27.247Z,25.07
2023-06-18T18:44:57.192Z,24.98
2023-06-18T18:47:27.368Z,24.91
2023-06-18T18:49:57.669Z,24.83
2023-06-18T18:52:28.577Z,24.74
2023-06-18T18:54:58.773Z,24.66
2023-06-18T18:57:28.991Z,24.60
2023-06-18T18:59:59.466Z,24.52
2023-06-18T19:02:30.504Z,24.44
2023-06-18T19:05:00.694Z,24.37
2023-06-18T19:07:31.033Z,24.31
2023-06-18T19:10:01.043Z,24.26
2023-06-18T19:12:31.265Z,24.19
2023-06-18T19:15:02.582Z,24.11
2023-06-18T19:17:33.372Z,24.04
2023-06-18T19:20:04.399Z,23.99
2023-06-18T19:22:35.221Z,23.93
2023-06-18T19:25:07.659Z,23.87
2023-06-18T19:27:38.070Z,23.83
2023-06-18T19:30:09.706Z,23.78
2023-06-18T19:32:39.835Z,23.74
2023-06-18T19:35:11.061Z,23.70
2023-06-18T19:49:31.533Z,23.48
2023-06-18T19:52:01.587Z,23.42
2023-06-18T19:54:33.873Z,23.39
2023-06-18T19:57:04.250Z,23.33
2023-06-18T19:59:36.296Z,23.28
2023-06-18T20:02:06.433Z,23.25
2023-06-18T20:04:36.458Z,23.23
2023-06-18T20:07:06.788Z,23.21
2023-06-18T20:09:36.865Z,23.18
2023-06-18T20:12:09.038Z,23.16
2023-06-18T20:14:39.072Z,23.14
2023-06-18T20:17:11.184Z,23.12
2023-06-18T20:19:41.436Z,23.10
2023-06-18T20:22:11.754Z,23.09
2023-06-18T20:24:41.825Z,23.08
2023-06-18T20:27:11.737Z,23.07
2023-06-18T20:29:42.825Z,23.06
2023-06-18T20:32:12.736Z,23.04
2023-06-18T20:34:42.641Z,23.03
2023-06-18T20:37:14.894Z,23.01
2023-06-18T20:39:45.661Z,22.99
2023-06-18T20:42:15.579Z,22.97
2023-06-18T20:44:46.078Z,22.94
2023-06-18T20:47:16.390Z,22.92
2023-06-18T20:49:46.678Z,22.90
2023-06-18T20:52:17.033Z,22.88
2023-06-18T20:54:47.241Z,22.85
2023-06-18T20:57:17.574Z,22.82
2023-06-18T20:59:49.651Z,22.80
2023-06-18T21:02:23.710Z,22.78
2023-06-18T21:04:53.902Z,22.77
2023-06-18T21:07:23.959Z,22.74
2023-06-18T21:09:54.158Z,22.72
2023-06-18T21:12:24.158Z,22.70
2023-06-18T21:14:54.352Z,22.68
2023-06-18T21:17:24.419Z,22.66
2023-06-18T21:19:54.350Z,22.64
2023-06-18T21:22:24.338Z,22.62
2023-06-18T21:24:54.714Z,22.60
2023-06-18T21:27:24.716Z,22.57
2023-06-18T21:29:54.733Z,22.55
2023-06-18T21:32:24.700Z,22.53
2023-06-18T21:34:54.936Z,22.52
2023-06-18T21:37:25.116Z,22.49
2023-06-18T21:39:55.081Z,22.46
2023-06-18T21:42:25.382Z,22.44
2023-06-18T21:44:55.433Z,22.43
2023-06-18T21:47:25.432Z,22.41
2023-06-18T21:49:55.546Z,22.38
2023-06-18T21:52:25.790Z,22.37
2023-06-18T21:54:55.946Z,22.35
2023-06-18T21:57:26.565Z,22.33
2023-06-18T21:59:57.809Z,22.31
2023-06-18T22:02:28.065Z,22.29
2023-06-18T22:04:58.050Z,22.27
2023-06-18T22:07:28.516Z,22.24
2023-06-18T22:09:58.595Z,22.23
2023-06-18T22:12:28.469Z,22.21
2023-06-18T22:14:58.443Z,22.21
2023-06-18T22:17:29.303Z,22.18
2023-06-18T22:19:59.245Z,22.16
2023-06-18T22:22:29.493Z,22.14
2023-06-18T22:24:59.755Z,22.13
2023-06-18T22:27:29.610Z,22.12
2023-06-18T22:30:00.056Z,22.12
2023-06-18T22:32:30.015Z,22.11
2023-06-18T22:34:59.872Z,22.11
2023-06-18T22:37:30.303Z,22.12
2023-06-18T22:40:02.189Z,22.11
2023-06-18T22:42:33.421Z,22.12
2023-06-18T22:45:03.477Z,22.12
2023-06-18T22:47:33.739Z,22.12
2023-06-18T22:50:03.947Z,22.12
2023-06-18T22:52:33.934Z,22.12
2023-06-18T22:55:04.712Z,22.11
2023-06-18T22:57:34.771Z,22.11
2023-06-18T23:00:09.423Z,22.11
2023-06-18T23:02:39.658Z,22.11
2023-06-18T23:05:10.176Z,22.11
2023-06-18T23:07:40.426Z,22.12
2023-06-18T23:10:12.055Z,22.12
2023-06-18T23:12:42.243Z,22.12
2023-06-18T23:15:13.402Z,22.12
2023-06-18T23:17:43.358Z,22.12
2023-06-18T23:20:14.461Z,22.12
2023-06-18T23:22:49.374Z,22.12
2023-06-18T23:25:19.841Z,22.12
2023-06-18T23:27:49.954Z,22.11
2023-06-18T23:30:20.378Z,22.12
2023-06-18T23:32:50.592Z,22.11
2023-06-18T23:35:20.553Z,22.09
2023-06-18T23:37:50.820Z,22.08
2023-06-18T23:40:23.373Z,22.06
2023-06-18T23:42:53.946Z,22.04
2023-06-18T23:45:23.802Z,22.02
2023-06-18T23:47:53.853Z,22.00
2023-06-18T23:50:24.126Z,21.99
2023-06-18T23:52:54.143Z,21.98
2023-06-18T23:55:25.250Z,21.97
2023-06-18T23:57:55.340Z,21.96
